Time;durP1;ratioP1;P1;durP2;ratioP2;P2;SDS_P1;SDS_P2;PMS_P1;PMS_P2;Temp;Humidity;BMP_temperature;BMP_pressure;BME280_temperature;BME280_humidity;BME280_pressure;Samples;Min_cycle;Max_cycle;Signal;HPM_P1;HPM_P2
2022/11/25 00:00:00;;;;;;;;;;;7.80;99.90;;;;;;5070914;28;19962;-73
2022/11/25 00:02:26;;;;;;;;;;;7.80;99.90;;;;;;5071110;28;19970;-73
2022/11/25 00:04:52;;;;;;;;;;;7.80;99.90;;;;;;5069884;28;20295;-75
2022/11/25 00:07:17;;;;;;;;;;;7.80;99.90;;;;;;5071177;28;20250;-75
2022/11/25 00:09:43;;;;;;;;;;;7.90;99.90;;;;;;5071385;28;19919;-75
2022/11/25 00:12:08;;;;;;;;;;;7.80;99.90;;;;;;5070982;28;19923;-75
2022/11/25 00:14:34;;;;;;;;;;;7.80;99.90;;;;;;5071459;28;20219;-75
2022/11/25 00:16:59;;;;;;;;;;;7.80;99.90;;;;;;5071076;28;19991;-75
2022/11/25 00:19:25;;;;;;;;;;;7.80;99.90;;;;;;5070058;28;19959;-74
2022/11/25 00:21:50;;;;;;;;;;;7.80;99.90;;;;;;5071446;28;19981;-75
2022/11/25 00:24:16;;;;;;;;;;;7.70;99.90;;;;;;5070983;28;20350;-74
2022/11/25 00:26:42;;;;;;;;;;;7.70;99.90;;;;;;5070794;28;20333;-75
2022/11/25 00:29:09;;;;;;;;;;;7.70;99.90;;;;;;5069791;28;20322;-73
2022/11/25 00:31:35;;;;;;;;;;;7.70;99.90;;;;;;5069651;28;20003;-75
2022/11/25 00:34:01;;;;;;;;;;;7.80;99.90;;;;;;5070213;28;19918;-74
2022/11/25 00:36:29;;;;;;;;;;;7.70;99.90;;;;;;5071024;28;19908;-74
2022/11/25 00:39:05;;;;;;;;;;;7.70;99.90;;;;;;5071477;28;19908;-74
2022/11/25 00:44:34;;;;;;;;;;;7.60;99.90;;;;;;5074463;28;20313;-74
2022/11/25 00:47:00;;;;;;;;;;;7.70;99.90;;;;;;5073137;28;19947;-75
2022/11/25 00:49:26;;;;;;;;;;;7.60;99.90;;;;;;5073801;28;19920;-75
2022/11/25 00:51:51;;;;;;;;;;;7.70;99.90;;;;;;5073555;28;19908;-74
2022/11/25 00:54:17;;;;;;;;;;;7.70;99.90;;;;;;5074110;28;19922;-74
2022/11/25 00:56:43;;;;;;;;;;;7.70;99.90;;;;;;5072966;28;19990;-74
2022/11/25 00:59:08;;;;;;;;;;;7.60;99.90;;;;;;5074126;28;20002;-75
2022/11/25 01:01:34;;;;;;;;;;;7.60;99.90;;;;;;5073852;28;19927;-74
2022/11/25 01:04:00;;;;;;;;;;;7.60;99.90;;;;;;5074345;28;19955;-75
2022/11/25 01:06:26;;;;;;;;;;;7.60;99.90;;;;;;5073887;28;20298;-74
2022/11/25 01:08:52;;;;;;;;;;;7.60;99.90;;;;;;5072754;28;20242;-75
2022/11/25 01:11:18;;;;;;;;;;;7.60;99.90;;;;;;5074083;28;20336;-74
2022/11/25 01:13:44;;;;;;;;;;;7.70;99.90;;;;;;5073707;28;19909;-75
2022/11/25 01:16:11;;;;;;;;;;;7.60;99.90;;;;;;5073764;28;19904;-73
2022/11/25 01:18:36;;;;;;;;;;;7.70;99.90;;;;;;5074204;28;19901;-73
2022/11/25 01:21:05;;;;;;;;;;;7.60;99.90;;;;;;5073765;28;20390;-74
2022/11/25 01:23:30;;;;;;;;;;;7.50;99.90;;;;;;5073779;28;19920;-74
2022/11/25 01:25:56;;;;;;;;;;;7.50;99.90;;;;;;5073761;28;20147;-76
2022/11/25 01:28:21;;;;;;;;;;;7.60;99.90;;;;;;5073681;28;19905;-75
2022/11/25 01:30:57;;;;;;;;;;;7.60;99.90;;;;;;5073889;28;19912;-74
2022/11/25 01:33:24;;;;;;;;;;;7.60;99.90;;;;;;5073710;28;19912;-74
2022/11/25 01:35:49;;;;;;;;;;;7.60;99.90;;;;;;5073600;28;19908;-74
2022/11/25 01:38:15;;;;;;;;;;;7.60;99.90;;;;;;5072293;28;19920;-74
2022/11/25 01:40:40;;;;;;;;;;;7.60;99.90;;;;;;5072268;28;19913;-73
2022/11/25 01:43:12;;;;;;;;;;;7.60;99.90;;;;;;5073602;28;19908;-74
2022/11/25 01:45:37;;;;;;;;;;;7.60;99.90;;;;;;5084383;28;19930;-73
2022/11/25 01:48:10;;;;;;;;;;;7.60;99.90;;;;;;5093023;28;19923;-73
2022/11/25 01:50:35;;;;;;;;;;;7.60;99.90;;;;;;5074359;28;19908;-74
2022/11/25 01:53:02;;;;;;;;;;;7.60;99.90;;;;;;5093183;28;19926;-73
2022/11/25 01:55:29;;;;;;;;;;;7.60;99.90;;;;;;5093288;28;20314;-74
2022/11/25 01:58:04;;;;;;;;;;;7.60;99.90;;;;;;5093767;28;20002;-75
2022/11/25 02:00:29;;;;;;;;;;;7.70;99.90;;;;;;5074969;28;19908;-74
2022/11/25 02:02:56;;;;;;;;;;;7.70;99.90;;;;;;5075123;28;19965;-73
2022/11/25 02:05:28;;;;;;;;;;;7.70;99.90;;;;;;5093138;28;19944;-75
2022/11/25 02:07:54;;;;;;;;;;;7.70;99.90;;;;;;5092883;28;19908;-75
2022/11/25 02:10:27;;;;;;;;;;;7.60;99.90;;;;;;5092683;28;19985;-75
2022/11/25 02:12:53;;;;;;;;;;;7.60;99.90;;;;;;5093207;28;19969;-75
2022/11/25 02:15:19;;;;;;;;;;;7.50;99.90;;;;;;5074739;28;19908;-74
2022/11/25 02:17:45;;;;;;;;;;;7.60;99.90;;;;;;5074559;28;19908;-75
2022/11/25 02:20:15;;;;;;;;;;;7.60;99.90;;;;;;5092594;28;19919;-74
2022/11/25 02:22:40;;;;;;;;;;;7.50;99.90;;;;;;5074800;28;19915;-74
2022/11/25 02:25:13;;;;;;;;;;;7.60;99.90;;;;;;5074994;28;19904;-74
2022/11/25 02:27:40;;;;;;;;;;;7.50;99.90;;;;;;5092423;28;19915;-75
2022/11/25 02:30:06;;;;;;;;;;;7.50;99.90;;;;;;5074443;28;20010;-75
2022/11/25 02:32:31;;;;;;;;;;;7.50;99.90;;;;;;5092290;28;19999;-74
2022/11/25 02:34:57;;;;;;;;;;;7.60;99.90;;;;;;5092232;28;20334;-75
2022/11/25 02:37:23;;;;;;;;;;;7.60;99.90;;;;;;5092276;28;19955;-75
2022/11/25 02:39:50;;;;;;;;;;;7.50;99.90;;;;;;5074788;28;19911;-75
2022/11/25 02:42:17;;;;;;;;;;;7.50;99.90;;;;;;5092220;28;20045;-74
2022/11/25 02:44:43;;;;;;;;;;;7.50;99.90;;;;;;5091889;28;19931;-73
2022/11/25 02:47:08;;;;;;;;;;;7.50;99.90;;;;;;5091947;28;19908;-74
2022/11/25 02:49:34;;;;;;;;;;;7.60;99.90;;;;;;5092038;28;19916;-74
2022/11/25 02:51:59;;;;;;;;;;;7.60;99.90;;;;;;5074476;28;19943;-74
2022/11/25 02:54:25;;;;;;;;;;;7.50;99.90;;;;;;5092032;28;19908;-74
2022/11/25 02:56:50;;;;;;;;;;;7.60;99.90;;;;;;5092130;28;19912;-73
2022/11/25 02:59:16;;;;;;;;;;;7.60;99.90;;;;;;5092076;28;20000;-74
2022/11/25 03:01:41;;;;;;;;;;;7.60;99.90;;;;;;5091870;28;19908;-74
2022/11/25 03:04:07;;;;;;;;;;;7.60;99.90;;;;;;5074566;28;20254;-74
2022/11/25 03:06:33;;;;;;;;;;;7.60;99.90;;;;;;5092149;28;19912;-74
2022/11/25 03:08:58;;;;;;;;;;;7.60;99.90;;;;;;5092070;28;19908;-73
2022/11/25 03:12:17;;;;;;;;;;;7.60;99.90;;;;;;5091855;28;19912;-73
2022/11/25 03:14:10;;;;;;;;;;;7.60;99.90;;;;;;5091629;28;19916;-73
2022/11/25 03:16:35;;;;;;;;;;;7.60;99.90;;;;;;5091743;28;19930;-73
2022/11/25 03:19:01;;;;;;;;;;;7.60;99.90;;;;;;5074343;28;20372;-75
2022/11/25 03:21:27;;;;;;;;;;;7.60;99.90;;;;;;5091778;28;19908;-74
2022/11/25 03:23:52;;;;;;;;;;;7.50;99.90;;;;;;5092107;28;19915;-74
2022/11/25 03:26:18;;;;;;;;;;;7.50;99.90;;;;;;5073603;28;19912;-75
2022/11/25 03:28:43;;;;;;;;;;;7.50;99.90;;;;;;5091336;28;19964;-74
2022/11/25 03:31:09;;;;;;;;;;;7.60;99.90;;;;;;5091994;28;20328;-72
2022/11/25 03:33:35;;;;;;;;;;;7.60;99.90;;;;;;5091639;28;19908;-74
2022/11/25 03:36:00;;;;;;;;;;;7.60;99.90;;;;;;5091692;28;20459;-74
2022/11/25 03:38:27;;;;;;;;;;;7.60;99.90;;;;;;5091606;28;19978;-74
2022/11/25 03:40:52;;;;;;;;;;;7.60;99.90;;;;;;5091729;28;19993;-74
2022/11/25 03:43:17;;;;;;;;;;;7.60;99.90;;;;;;5091710;28;19962;-75
2022/11/25 03:45:46;;;;;;;;;;;7.60;99.90;;;;;;5091650;28;20061;-75
2022/11/25 03:48:12;;;;;;;;;;;7.60;99.90;;;;;;5091421;28;19915;-75
2022/11/25 03:50:38;;;;;;;;;;;7.60;99.90;;;;;;5073410;28;19912;-75
2022/11/25 03:53:03;;;;;;;;;;;7.60;99.90;;;;;;5091423;28;19912;-76
2022/11/25 03:55:29;;;;;;;;;;;7.60;99.90;;;;;;5091224;28;19920;-74
2022/11/25 03:57:54;;;;;;;;;;;7.70;99.90;;;;;;5091649;28;19953;-74
2022/11/25 04:00:20;;;;;;;;;;;7.60;99.90;;;;;;5091260;28;19908;-75
2022/11/25 04:02:45;;;;;;;;;;;7.80;99.90;;;;;;5091040;28;20233;-73
2022/11/25 04:05:11;;;;;;;;;;;7.70;99.90;;;;;;5090931;28;20341;-75
2022/11/25 04:07:36;;;;;;;;;;;7.70;99.90;;;;;;5073263;28;20286;-75
2022/11/25 04:10:02;;;;;;;;;;;7.70;99.90;;;;;;5091335;28;19975;-75
2022/11/25 04:12:46;;;;;;;;;;;7.70;99.90;;;;;;5090887;28;19973;-74
2022/11/25 04:15:12;;;;;;;;;;;7.70;99.90;;;;;;5094225;28;19912;-74
2022/11/25 04:17:38;;;;;;;;;;;7.70;99.90;;;;;;5076742;28;20333;-73
2022/11/25 04:20:04;;;;;;;;;;;7.70;99.90;;;;;;5095046;28;19912;-74
2022/11/25 04:22:30;;;;;;;;;;;7.70;99.90;;;;;;5094937;28;19916;-74
2022/11/25 04:24:55;;;;;;;;;;;7.70;99.90;;;;;;5095401;28;19908;-75
2022/11/25 04:27:21;;;;;;;;;;;7.70;99.90;;;;;;5094921;28;19989;-73
2022/11/25 04:29:46;;;;;;;;;;;7.70;99.90;;;;;;5094663;28;19908;-75
2022/11/25 04:32:12;;;;;;;;;;;7.70;99.90;;;;;;5094812;28;20173;-75
2022/11/25 04:34:37;;;;;;;;;;;7.70;99.90;;;;;;5094754;28;19934;-75
2022/11/25 04:37:03;;;;;;;;;;;7.70;99.90;;;;;;5095306;28;19908;-74
2022/11/25 04:39:29;;;;;;;;;;;7.70;99.90;;;;;;5094624;28;19912;-75
2022/11/25 04:42:30;;;;;;;;;;;7.70;99.90;;;;;;5094887;28;19915;-73
2022/11/25 04:44:40;;;;;;;;;;;7.70;99.90;;;;;;5094207;28;20329;-73
2022/11/25 04:47:05;;;;;;;;;;;7.70;99.90;;;;;;5076594;28;19944;-74
2022/11/25 04:49:31;;;;;;;;;;;7.70;99.90;;;;;;5094437;28;20337;-74
2022/11/25 04:51:57;;;;;;;;;;;7.70;99.90;;;;;;5077153;28;19907;-74
2022/11/25 04:54:22;;;;;;;;;;;7.70;99.90;;;;;;5076783;28;20302;-75
2022/11/25 04:56:48;;;;;;;;;;;7.60;99.90;;;;;;5076873;28;19911;-75
2022/11/25 05:01:57;;;;;;;;;;;7.70;99.90;;;;;;5094619;28;20003;-75
2022/11/25 05:04:23;;;;;;;;;;;7.60;99.90;;;;;;5094417;28;19969;-73
2022/11/25 05:06:50;;;;;;;;;;;7.70;99.90;;;;;;5076855;28;20016;-73
2022/11/25 05:09:16;;;;;;;;;;;7.70;99.90;;;;;;5094453;28;19973;-74
2022/11/25 05:11:41;;;;;;;;;;;7.70;99.90;;;;;;5094012;28;19961;-74
2022/11/25 05:14:07;;;;;;;;;;;7.70;99.90;;;;;;5076031;28;19911;-73
2022/11/25 05:16:32;;;;;;;;;;;7.70;99.90;;;;;;5093958;28;19965;-74
2022/11/25 05:18:58;;;;;;;;;;;7.70;99.90;;;;;;5076470;28;19998;-74
2022/11/25 05:21:24;;;;;;;;;;;7.60;99.90;;;;;;5093958;28;19908;-75
2022/11/25 05:23:49;;;;;;;;;;;7.60;99.90;;;;;;5094043;28;20286;-74
2022/11/25 05:26:15;;;;;;;;;;;7.60;99.90;;;;;;5092678;28;19926;-74
2022/11/25 05:28:40;;;;;;;;;;;7.60;99.90;;;;;;5093774;28;19911;-74
2022/11/25 05:31:06;;;;;;;;;;;7.60;99.90;;;;;;5076000;28;20272;-73
2022/11/25 05:33:32;;;;;;;;;;;7.60;99.90;;;;;;5093666;28;19938;-74
2022/11/25 05:35:58;;;;;;;;;;;7.60;99.90;;;;;;5094075;28;20003;-74
2022/11/25 05:38:24;;;;;;;;;;;7.60;99.90;;;;;;5075915;28;19995;-74
2022/11/25 05:40:50;;;;;;;;;;;7.60;99.90;;;;;;5093780;28;19999;-74
2022/11/25 05:43:16;;;;;;;;;;;7.60;99.90;;;;;;5093615;28;19904;-74
2022/11/25 05:45:41;;;;;;;;;;;7.60;99.90;;;;;;5094079;28;19959;-74
2022/11/25 05:48:07;;;;;;;;;;;7.60;99.90;;;;;;5094014;28;19939;-74
2022/11/25 05:50:33;;;;;;;;;;;7.60;99.90;;;;;;5093391;28;19970;-74
2022/11/25 05:52:58;;;;;;;;;;;7.60;99.90;;;;;;5093234;28;19926;-74
2022/11/25 05:55:23;;;;;;;;;;;7.90;99.90;;;;;;5093199;28;19904;-74
2022/11/25 05:57:49;;;;;;;;;;;7.70;99.90;;;;;;5075901;28;19908;-74
2022/11/25 06:00:15;;;;;;;;;;;7.70;99.90;;;;;;5075248;28;20226;-74
2022/11/25 06:02:40;;;;;;;;;;;7.70;99.90;;;;;;5093121;28;20009;-73
2022/11/25 06:05:06;;;;;;;;;;;7.70;99.90;;;;;;5092994;28;19908;-73
2022/11/25 06:07:32;;;;;;;;;;;7.70;99.90;;;;;;5093004;28;19908;-73
2022/11/25 06:09:57;;;;;;;;;;;7.70;99.90;;;;;;5093326;28;20339;-75
2022/11/25 06:12:23;;;;;;;;;;;7.70;99.90;;;;;;5092979;28;19960;-75
2022/11/25 06:14:49;;;;;;;;;;;7.70;99.90;;;;;;5093014;28;20231;-76
2022/11/25 06:17:15;;;;;;;;;;;7.70;99.90;;;;;;5074644;28;20286;-76
2022/11/25 06:19:40;;;;;;;;;;;7.70;99.90;;;;;;5074983;28;19919;-74
2022/11/25 06:22:06;;;;;;;;;;;7.80;99.90;;;;;;5075496;28;19915;-73
2022/11/25 06:24:31;;;;;;;;;;;7.80;99.90;;;;;;5092770;28;20028;-74
2022/11/25 06:26:57;;;;;;;;;;;7.80;99.90;;;;;;5074769;28;20328;-75
2022/11/25 06:29:23;;;;;;;;;;;7.80;99.90;;;;;;5074496;28;20227;-75
2022/11/25 06:31:49;;;;;;;;;;;7.80;99.90;;;;;;5092241;28;19912;-72
2022/11/25 06:34:14;;;;;;;;;;;7.90;99.90;;;;;;5092269;28;19908;-74
2022/11/25 06:36:40;;;;;;;;;;;7.90;99.90;;;;;;5074745;28;20349;-73
2022/11/25 06:39:05;;;;;;;;;;;7.90;99.90;;;;;;5074463;28;19947;-74
2022/11/25 06:41:31;;;;;;;;;;;8.00;99.90;;;;;;5092555;28;19912;-75
2022/11/25 06:43:57;;;;;;;;;;;8.10;99.90;;;;;;5074312;28;19935;-74
2022/11/25 06:46:22;;;;;;;;;;;8.10;99.90;;;;;;5092165;28;19920;-74
2022/11/25 06:48:48;;;;;;;;;;;8.10;99.90;;;;;;5074745;28;19912;-75
2022/11/25 06:51:14;;;;;;;;;;;8.20;99.90;;;;;;5092293;28;19919;-74
2022/11/25 06:53:40;;;;;;;;;;;8.20;99.90;;;;;;5091993;28;19965;-75
2022/11/25 06:56:11;;;;;;;;;;;8.20;99.90;;;;;;5074473;28;20244;-74
2022/11/25 06:58:37;;;;;;;;;;;8.30;99.90;;;;;;5074001;28;19922;-75
2022/11/25 07:01:04;;;;;;;;;;;8.30;99.90;;;;;;5074576;28;19962;-74
2022/11/25 07:03:30;;;;;;;;;;;8.30;99.90;;;;;;5092013;28;19908;-74
2022/11/25 07:05:57;;;;;;;;;;;8.40;99.90;;;;;;5091955;28;19908;-74
2022/11/25 07:08:23;;;;;;;;;;;8.40;99.90;;;;;;5073847;28;20282;-74
2022/11/25 07:10:49;;;;;;;;;;;8.40;99.90;;;;;;5091646;28;20253;-72
2022/11/25 07:13:14;;;;;;;;;;;8.40;99.90;;;;;;5073562;28;19904;-73
2022/11/25 07:15:41;;;;;;;;;;;8.50;99.90;;;;;;5092354;28;20006;-72
2022/11/25 07:18:07;;;;;;;;;;;8.40;99.90;;;;;;5091738;28;19919;-74
2022/11/25 07:20:32;;;;;;;;;;;8.50;99.90;;;;;;5092031;28;20230;-73
2022/11/25 07:22:58;;;;;;;;;;;8.40;99.90;;;;;;5091692;28;19923;-75
2022/11/25 07:25:23;;;;;;;;;;;8.40;99.90;;;;;;5091771;28;20369;-73
2022/11/25 07:27:49;;;;;;;;;;;8.50;99.90;;;;;;5073810;28;20412;-73
2022/11/25 07:30:15;;;;;;;;;;;8.50;99.90;;;;;;5073605;28;19908;-73
2022/11/25 07:32:40;;;;;;;;;;;8.50;99.90;;;;;;5073338;28;19999;-76
2022/11/25 07:35:06;;;;;;;;;;;8.50;99.90;;;;;;5091412;28;20344;-74
2022/11/25 07:37:31;;;;;;;;;;;8.60;99.90;;;;;;5091913;28;20253;-74
2022/11/25 07:39:57;;;;;;;;;;;8.60;99.90;;;;;;5091997;28;19923;-74
2022/11/25 07:42:23;;;;;;;;;;;8.60;99.90;;;;;;5091861;28;20273;-76
2022/11/25 07:44:49;;;;;;;;;;;8.70;99.90;;;;;;5091106;28;19927;-73
2022/11/25 07:47:14;;;;;;;;;;;8.70;99.90;;;;;;5073492;28;20310;-75
2022/11/25 07:49:40;;;;;;;;;;;8.70;99.90;;;;;;5072804;28;19908;-74
2022/11/25 07:52:05;;;;;;;;;;;8.70;99.90;;;;;;5092074;28;19908;-74
2022/11/25 07:54:32;;;;;;;;;;;8.70;99.90;;;;;;5091395;28;20345;-75
2022/11/25 07:56:57;;;;;;;;;;;8.70;99.90;;;;;;5082040;28;19908;-75
2022/11/25 07:59:23;;;;;;;;;;;8.80;99.90;;;;;;5071270;28;19985;-74
2022/11/25 08:01:49;;;;;;;;;;;8.70;99.90;;;;;;5053221;28;19912;-73
2022/11/25 08:04:15;;;;;;;;;;;8.80;99.90;;;;;;5071081;28;19911;-76
2022/11/25 08:06:42;;;;;;;;;;;8.80;99.90;;;;;;5071643;28;19919;-74
2022/11/25 08:09:13;;;;;;;;;;;8.90;99.90;;;;;;5070981;28;20054;-74
2022/11/25 08:11:39;;;;;;;;;;;8.80;99.90;;;;;;5071042;28;19923;-74
2022/11/25 08:14:05;;;;;;;;;;;8.90;99.90;;;;;;5071254;28;19927;-75
2022/11/25 08:16:31;;;;;;;;;;;8.90;99.90;;;;;;5070999;28;19908;-76
2022/11/25 08:18:58;;;;;;;;;;;9.00;99.90;;;;;;5071439;28;19915;-74
2022/11/25 08:21:24;;;;;;;;;;;9.00;99.90;;;;;;5052966;28;20470;-72
2022/11/25 08:23:51;;;;;;;;;;;9.00;99.90;;;;;;5070478;28;19916;-72
2022/11/25 08:26:29;;;;;;;;;;;8.90;99.90;;;;;;5070457;28;19927;-73
2022/11/25 08:28:55;;;;;;;;;;;9.00;99.90;;;;;;5070726;28;19947;-74
2022/11/25 08:31:22;;;;;;;;;;;9.00;99.90;;;;;;5052996;28;20230;-73
2022/11/25 08:33:48;;;;;;;;;;;9.00;99.90;;;;;;5070849;28;20341;-71
2022/11/25 08:36:14;;;;;;;;;;;9.10;99.90;;;;;;5070262;28;20106;-73
2022/11/25 08:38:41;;;;;;;;;;;9.10;99.90;;;;;;5070700;28;19915;-72
2022/11/25 08:41:14;;;;;;;;;;;9.20;99.90;;;;;;5052823;28;19909;-75
2022/11/25 08:43:40;;;;;;;;;;;9.20;99.90;;;;;;5070163;28;20248;-71
2022/11/25 08:46:07;;;;;;;;;;;9.20;99.90;;;;;;5070627;28;19978;-72
2022/11/25 08:48:32;;;;;;;;;;;9.30;99.90;;;;;;5052805;28;20310;-72
2022/11/25 08:50:58;;;;;;;;;;;9.30;99.90;;;;;;5070333;28;19912;-72
2022/11/25 08:53:24;;;;;;;;;;;9.30;99.90;;;;;;5070173;28;19918;-73
2022/11/25 08:55:49;;;;;;;;;;;9.30;99.90;;;;;;5070006;28;19909;-73
2022/11/25 08:58:15;;;;;;;;;;;9.30;99.90;;;;;;5070054;28;19941;-72
2022/11/25 09:00:42;;;;;;;;;;;9.40;99.90;;;;;;5071940;28;19980;-72
2022/11/25 09:03:08;;;;;;;;;;;9.30;99.90;;;;;;5072846;28;20254;-76
2022/11/25 09:05:37;;;;;;;;;;;9.40;99.90;;;;;;5074038;28;20372;-74
2022/11/25 09:08:02;;;;;;;;;;;9.30;99.90;;;;;;5073691;28;19965;-74
2022/11/25 09:10:28;;;;;;;;;;;9.40;99.90;;;;;;5072542;28;20320;-75
2022/11/25 09:12:54;;;;;;;;;;;9.40;99.90;;;;;;5074167;28;19911;-78
2022/11/25 09:15:20;;;;;;;;;;;9.30;99.90;;;;;;5073794;28;20245;-73
2022/11/25 09:17:45;;;;;;;;;;;9.30;99.90;;;;;;5089106;28;19912;-88
2022/11/25 09:20:11;;;;;;;;;;;9.40;99.90;;;;;;5095021;28;19985;-76
2022/11/25 09:22:36;;;;;;;;;;;9.40;99.90;;;;;;5076376;28;19916;-73
2022/11/25 09:25:02;;;;;;;;;;;9.40;99.90;;;;;;5076745;28;19912;-76
2022/11/25 09:27:29;;;;;;;;;;;9.40;99.90;;;;;;5076151;28;19923;-74
2022/11/25 09:29:55;;;;;;;;;;;9.40;99.90;;;;;;5094012;28;19907;-77
2022/11/25 09:32:21;;;;;;;;;;;9.50;99.90;;;;;;5075565;28;20397;-78
2022/11/25 09:34:46;;;;;;;;;;;9.40;99.90;;;;;;5093639;28;19943;-76
2022/11/25 09:37:12;;;;;;;;;;;9.50;99.90;;;;;;5093866;28;19954;-74
2022/11/25 09:39:37;;;;;;;;;;;9.60;99.90;;;;;;5094240;28;20175;-73
2022/11/25 09:48:05;;;;;;;;;;;9.60;99.90;;;;;;5093777;28;19919;-76
2022/11/25 09:50:37;;;;;;;;;;;9.50;99.90;;;;;;5075829;28;19919;-74
2022/11/25 09:53:17;;;;;;;;;;;9.60;99.90;;;;;;5093759;28;20231;-74
2022/11/25 09:55:45;;;;;;;;;;;9.50;99.90;;;;;;5075389;28;19922;-75
2022/11/25 09:58:22;;;;;;;;;;;9.50;99.90;;;;;;5093376;28;19915;-74
2022/11/25 10:00:50;;;;;;;;;;;9.50;99.90;;;;;;5093653;28;19992;-74
2022/11/25 10:03:21;;;;;;;;;;;9.50;99.90;;;;;;5093133;28;19931;-74
2022/11/25 10:06:07;;;;;;;;;;;9.50;99.90;;;;;;5093003;28;19965;-74
2022/11/25 10:08:38;;;;;;;;;;;9.60;99.90;;;;;;5093063;28;20014;-75
2022/11/25 10:11:12;;;;;;;;;;;9.60;99.90;;;;;;5074541;28;19927;-72
2022/11/25 10:13:37;;;;;;;;;;;9.60;99.90;;;;;;5075296;28;19912;-73
2022/11/25 10:16:05;;;;;;;;;;;9.60;99.90;;;;;;5076277;28;19915;-72
2022/11/25 10:18:44;;;;;;;;;;;9.60;99.90;;;;;;5093539;28;19947;-74
2022/11/25 10:21:12;;;;;;;;;;;9.70;99.90;;;;;;5093440;28;19919;-75
2022/11/25 10:23:38;;;;;;;;;;;9.70;99.90;;;;;;5075229;28;20333;-73
2022/11/25 10:26:14;;;;;;;;;;;9.70;99.90;;;;;;5075601;28;19915;-71
2022/11/25 10:28:45;;;;;;;;;;;9.70;99.90;;;;;;5093126;28;19915;-73
2022/11/25 10:31:15;;;;;;;;;;;9.80;99.90;;;;;;5092204;28;19947;-73
2022/11/25 10:33:43;;;;;;;;;;;9.80;99.90;;;;;;5093318;28;19896;-71
2022/11/25 10:36:15;;;;;;;;;;;9.80;99.90;;;;;;5093072;28;20350;-72
2022/11/25 10:38:44;;;;;;;;;;;9.80;99.90;;;;;;5092713;28;20288;-72
2022/11/25 10:41:15;;;;;;;;;;;9.80;99.90;;;;;;5092164;28;19912;-71
2022/11/25 10:43:42;;;;;;;;;;;9.90;99.90;;;;;;5074465;28;19951;-72
2022/11/25 10:46:15;;;;;;;;;;;9.90;99.90;;;;;;5092800;28;19939;-72
2022/11/25 10:48:40;;;;;;;;;;;10.00;99.90;;;;;;5074628;28;20336;-72
2022/11/25 10:51:25;;;;;;;;;;;9.90;99.90;;;;;;5092310;28;19958;-71
2022/11/25 10:54:09;;;;;;;;;;;10.00;99.90;;;;;;5092412;28;20007;-70
2022/11/25 10:56:55;;;;;;;;;;;10.00;99.90;;;;;;5092166;28;19923;-72
2022/11/25 10:59:24;;;;;;;;;;;10.00;99.90;;;;;;5074100;28;19993;-72
2022/11/25 11:01:51;;;;;;;;;;;10.00;99.90;;;;;;5092091;28;19908;-75
2022/11/25 11:04:17;;;;;;;;;;;10.10;99.90;;;;;;5092721;28;19965;-74
2022/11/25 11:06:48;;;;;;;;;;;10.10;99.90;;;;;;5074635;28;20333;-78
2022/11/25 11:09:28;;;;;;;;;;;10.10;99.90;;;;;;5092064;28;19934;-76
2022/11/25 11:11:55;;;;;;;;;;;10.00;99.90;;;;;;5092905;28;19912;-78
2022/11/25 11:14:21;;;;;;;;;;;10.10;99.90;;;;;;5076185;28;19924;-76
2022/11/25 11:16:53;;;;;;;;;;;10.10;99.90;;;;;;5093168;28;19908;-74
2022/11/25 11:19:20;;;;;;;;;;;10.10;99.90;;;;;;5076020;28;19912;-75
2022/11/25 11:21:46;;;;;;;;;;;10.10;99.90;;;;;;5094016;28;19900;-76
2022/11/25 11:24:33;;;;;;;;;;;10.10;99.90;;;;;;5091593;28;19922;-75
2022/11/25 11:27:03;;;;;;;;;;;10.10;99.90;;;;;;5092116;28;19912;-77
2022/11/25 11:29:28;;;;;;;;;;;10.10;99.90;;;;;;5091634;28;19951;-76
2022/11/25 11:31:57;;;;;;;;;;;10.10;99.90;;;;;;5091733;28;19948;-74
2022/11/25 11:34:42;;;;;;;;;;;10.10;99.90;;;;;;5073838;28;19908;-75
2022/11/25 11:37:10;;;;;;;;;;;10.00;99.90;;;;;;5092484;28;19936;-71
2022/11/25 11:39:58;;;;;;;;;;;10.20;99.90;;;;;;5091817;28;19922;-76
2022/11/25 11:42:30;;;;;;;;;;;10.10;99.90;;;;;;5091753;28;19916;-74
2022/11/25 11:44:56;;;;;;;;;;;10.10;99.90;;;;;;5073192;28;20009;-74
2022/11/25 11:47:26;;;;;;;;;;;10.20;99.90;;;;;;5091665;28;19961;-74
2022/11/25 11:50:00;;;;;;;;;;;10.30;99.90;;;;;;5091443;28;19908;-75
2022/11/25 11:52:46;;;;;;;;;;;10.30;99.90;;;;;;5091358;28;20006;-75
2022/11/25 11:55:11;;;;;;;;;;;10.30;99.90;;;;;;5076995;28;20011;-73
2022/11/25 11:57:56;;;;;;;;;;;10.40;99.90;;;;;;5091896;28;20143;-73
2022/11/25 12:00:21;;;;;;;;;;;10.40;99.90;;;;;;5091323;28;19919;-73
2022/11/25 12:02:47;;;;;;;;;;;10.40;99.90;;;;;;5091706;28;19908;-74
2022/11/25 12:05:16;;;;;;;;;;;10.50;99.90;;;;;;5092144;28;20278;-72
2022/11/25 12:07:46;;;;;;;;;;;10.50;99.90;;;;;;5091695;28;19912;-70
2022/11/25 12:10:14;;;;;;;;;;;10.50;99.90;;;;;;5073704;28;19957;-73
2022/11/25 12:13:00;;;;;;;;;;;10.60;99.90;;;;;;5091688;28;19919;-74
2022/11/25 12:15:37;;;;;;;;;;;10.50;99.90;;;;;;5049558;28;19908;-74
2022/11/25 12:18:08;;;;;;;;;;;10.50;99.90;;;;;;5073944;28;19923;-73
2022/11/25 12:20:37;;;;;;;;;;;10.50;99.90;;;;;;5092048;28;20246;-72
2022/11/25 12:23:07;;;;;;;;;;;10.50;99.90;;;;;;5073832;28;19919;-73
2022/11/25 12:25:35;;;;;;;;;;;10.60;99.90;;;;;;5091599;28;19912;-73
2022/11/25 12:28:24;;;;;;;;;;;10.70;99.90;;;;;;5092331;28;19908;-74
2022/11/25 12:31:05;;;;;;;;;;;10.70;99.90;;;;;;5074982;28;20338;-72
2022/11/25 12:33:41;;;;;;;;;;;10.80;99.90;;;;;;5091324;28;20003;-73
2022/11/25 12:36:12;;;;;;;;;;;10.80;99.90;;;;;;5094566;28;20372;-73
2022/11/25 12:38:44;;;;;;;;;;;10.80;99.90;;;;;;5094992;28;19920;-70
2022/11/25 12:41:22;;;;;;;;;;;10.80;99.90;;;;;;5095297;28;19962;-71
2022/11/25 12:43:49;;;;;;;;;;;10.90;99.90;;;;;;5094931;28;19991;-69
2022/11/25 12:46:22;;;;;;;;;;;11.00;99.90;;;;;;5094328;28;20381;-71
2022/11/25 12:48:47;;;;;;;;;;;11.00;99.90;;;;;;5077251;28;19908;-71
2022/11/25 12:51:31;;;;;;;;;;;11.10;99.90;;;;;;5095022;28;20204;-70
2022/11/25 12:54:06;;;;;;;;;;;11.10;99.90;;;;;;5076747;28;19984;-72
2022/11/25 12:56:49;;;;;;;;;;;11.20;99.90;;;;;;5094695;28;20338;-72
2022/11/25 12:59:15;;;;;;;;;;;11.20;99.90;;;;;;5094763;28;19943;-83
2022/11/25 13:01:46;;;;;;;;;;;11.20;99.90;;;;;;5076500;28;19939;-73
2022/11/25 13:04:27;;;;;;;;;;;11.20;99.90;;;;;;5094118;28;19904;-72
2022/11/25 13:07:04;;;;;;;;;;;11.10;99.90;;;;;;5094713;28;19907;-70
2022/11/25 13:09:40;;;;;;;;;;;11.20;99.90;;;;;;5076433;28;19919;-73
2022/11/25 13:12:12;;;;;;;;;;;11.30;99.90;;;;;;5094286;28;19916;-72
2022/11/25 13:14:56;;;;;;;;;;;11.30;99.90;;;;;;5094813;28;19987;-74
2022/11/25 13:17:22;;;;;;;;;;;11.30;99.90;;;;;;5093993;28;19981;-75
2022/11/25 13:19:48;;;;;;;;;;;11.30;99.90;;;;;;5076052;28;20095;-72
2022/11/25 13:22:19;;;;;;;;;;;11.40;99.90;;;;;;5091412;28;19912;-77
2022/11/25 13:24:45;;;;;;;;;;;11.30;99.90;;;;;;5095381;28;19903;-73
2022/11/25 13:27:30;;;;;;;;;;;11.30;99.90;;;;;;5076430;28;19916;-75
2022/11/25 13:29:55;;;;;;;;;;;11.30;99.90;;;;;;5076450;28;19919;-74
2022/11/25 13:32:30;;;;;;;;;;;11.40;99.90;;;;;;5076394;28;19913;-73
2022/11/25 13:35:14;;;;;;;;;;;11.40;99.90;;;;;;5094256;28;20007;-73
2022/11/25 13:37:40;;;;;;;;;;;11.40;99.90;;;;;;5094090;28;19908;-73
2022/11/25 13:40:27;;;;;;;;;;;11.50;99.90;;;;;;5094426;28;19988;-75
2022/11/25 13:42:54;;;;;;;;;;;11.40;99.90;;;;;;5074234;28;19919;-74
2022/11/25 13:45:41;;;;;;;;;;;11.50;99.90;;;;;;5093986;28;19924;-74
2022/11/25 13:48:23;;;;;;;;;;;11.40;99.90;;;;;;5093332;28;19927;-74
2022/11/25 13:50:50;;;;;;;;;;;11.50;99.90;;;;;;5075617;28;19912;-74
2022/11/25 13:53:30;;;;;;;;;;;11.50;99.90;;;;;;5093659;28;19908;-75
2022/11/25 13:56:15;;;;;;;;;;;11.50;99.90;;;;;;5093810;28;19919;-74
2022/11/25 13:59:00;;;;;;;;;;;11.50;99.90;;;;;;5075972;28;19915;-72
2022/11/25 14:01:26;;;;;;;;;;;11.60;99.90;;;;;;5075548;28;20265;-74
2022/11/25 14:03:53;;;;;;;;;;;11.60;99.90;;;;;;5094103;28;19979;-74
2022/11/25 14:06:29;;;;;;;;;;;11.60;99.90;;;;;;5093271;28;19922;-74
2022/11/25 14:09:03;;;;;;;;;;;11.60;99.90;;;;;;5075566;28;19934;-72
2022/11/25 14:11:28;;;;;;;;;;;11.70;99.90;;;;;;5093243;28;20282;-72
2022/11/25 14:13:57;;;;;;;;;;;11.70;99.90;;;;;;5075421;28;19958;-74
2022/11/25 14:16:28;;;;;;;;;;;11.70;99.90;;;;;;5093238;28;19940;-73
2022/11/25 14:18:57;;;;;;;;;;;11.70;99.90;;;;;;5093539;28;19986;-73
2022/11/25 14:21:39;;;;;;;;;;;11.80;99.90;;;;;;5074920;28;20243;-75
2022/11/25 14:24:17;;;;;;;;;;;11.80;99.90;;;;;;5093314;28;19981;-74
2022/11/25 14:26:44;;;;;;;;;;;11.80;99.90;;;;;;5093472;28;19961;-76
2022/11/25 14:29:19;;;;;;;;;;;11.80;99.90;;;;;;5075230;28;19969;-77
2022/11/25 14:31:46;;;;;;;;;;;11.80;99.90;;;;;;5093030;28;19970;-75
2022/11/25 14:34:20;;;;;;;;;;;11.70;99.90;;;;;;5075337;28;20272;-74
2022/11/25 14:36:53;;;;;;;;;;;11.80;99.90;;;;;;5075036;28;20305;-74
2022/11/25 14:39:39;;;;;;;;;;;11.80;99.90;;;;;;5075070;28;19914;-72
2022/11/25 14:42:07;;;;;;;;;;;11.80;99.90;;;;;;5092520;28;19908;-71
2022/11/25 14:44:44;;;;;;;;;;;11.70;99.90;;;;;;5092363;28;20042;-74